Time;durP1;ratioP1;P1;durP2;ratioP2;P2;SDS_P1;SDS_P2;PMS_P1;PMS_P2;Temp;Humidity;BMP_temperature;BMP_pressure;BME280_temperature;BME280_humidity;BME280_pressure;Samples;Min_cycle;Max_cycle;Signal;HPM_P1;HPM_P2
2022/01/08 00:01:16;;;;;;;;;;;;;;;19.94;44.47;100855.56;5053018;28;19920;-79
2022/01/08 00:03:42;;;;;;;;;;;;;;;19.93;44.43;100862.94;5055448;28;19939;-79
2022/01/08 00:06:07;;;;;;;;;;;;;;;19.95;44.38;100870.88;5061691;28;19926;-79
2022/01/08 00:08:33;;;;;;;;;;;;;;;19.93;44.48;100873.91;5050341;28;19936;-79
2022/01/08 00:10:58;;;;;;;;;;;;;;;19.94;44.48;100877.50;5049646;28;19920;-81
2022/01/08 00:13:24;;;;;;;;;;;;;;;19.94;44.24;100881.03;5071379;28;19923;-79
2022/01/08 00:15:49;;;;;;;;;;;;;;;19.94;44.43;100882.97;5071857;28;19959;-79
2022/01/08 00:18:14;;;;;;;;;;;;;;;19.93;44.17;100879.41;5052943;28;19925;-79
2022/01/08 00:20:40;;;;;;;;;;;;;;;19.93;44.25;100882.13;5053618;28;19925;-79
2022/01/08 00:23:05;;;;;;;;;;;;;;;19.92;44.12;100883.25;5062684;28;19917;-79
2022/01/08 00:25:30;;;;;;;;;;;;;;;19.92;44.16;100885.19;5037022;28;20008;-79
2022/01/08 00:27:55;;;;;;;;;;;;;;;19.92;44.19;100893.44;5071805;28;20035;-80
2022/01/08 00:30:21;;;;;;;;;;;;;;;19.92;44.23;100886.00;5069923;28;20394;-79
2022/01/08 00:32:46;;;;;;;;;;;;;;;19.91;43.99;100884.41;5071380;28;19924;-79
2022/01/08 00:35:12;;;;;;;;;;;;;;;19.91;44.00;100891.78;5059204;28;20396;-80
2022/01/08 00:37:38;;;;;;;;;;;;;;;19.90;44.05;100899.19;5063984;28;19942;-79
2022/01/08 00:40:07;;;;;;;;;;;;;;;19.89;43.93;100906.63;5062004;28;19932;-81
2022/01/08 00:42:32;;;;;;;;;;;;;;;19.89;43.94;100911.28;5071148;28;20050;-80
2022/01/08 00:44:57;;;;;;;;;;;;;;;19.87;43.84;100908.84;5071127;28;19962;-80
2022/01/08 00:47:23;;;;;;;;;;;;;;;19.86;44.03;100909.97;5052803;28;19920;-79
2022/01/08 00:49:48;;;;;;;;;;;;;;;19.85;43.74;100908.31;5071119;28;19982;-79
2022/01/08 00:52:13;;;;;;;;;;;;;;;19.84;43.88;100906.69;5035102;28;19925;-79
2022/01/08 00:54:39;;;;;;;;;;;;;;;19.84;43.74;100903.97;5036990;28;19921;-79
2022/01/08 00:57:05;;;;;;;;;;;;;;;19.83;43.76;100905.09;5072964;28;19951;-80
2022/01/08 00:59:31;;;;;;;;;;;;;;;19.83;43.70;100901.50;5075083;28;20319;-79
2022/01/08 01:01:56;;;;;;;;;;;;;;;19.81;43.77;100904.56;5072339;28;19924;-79
2022/01/08 01:04:21;;;;;;;;;;;;;;;19.80;43.58;100900.19;5074310;28;19927;-80
2022/01/08 01:06:46;;;;;;;;;;;;;;;19.79;43.74;100890.34;5057407;28;20284;-80
2022/01/08 01:09:12;;;;;;;;;;;;;;;19.78;43.54;100891.47;5055433;28;20022;-79
2022/01/08 01:11:37;;;;;;;;;;;;;;;19.78;43.70;100899.69;5037440;28;19932;-80
2022/01/08 01:14:02;;;;;;;;;;;;;;;19.76;43.47;100901.91;5056748;28;20416;-80
2022/01/08 01:16:27;;;;;;;;;;;;;;;19.77;43.51;100900.00;5073132;28;19923;-80
2022/01/08 01:18:54;;;;;;;;;;;;;;;19.74;43.62;100898.66;5074333;28;19920;-80
2022/01/08 01:21:19;;;;;;;;;;;;;;;19.74;43.23;100903.34;5057704;28;19925;-79
2022/01/08 01:23:45;;;;;;;;;;;;;;;19.73;43.33;100894.31;5056791;28;19920;-80
2022/01/08 01:26:16;;;;;;;;;;;;;;;19.72;43.45;100905.56;5055764;28;19924;-80
2022/01/08 01:28:55;;;;;;;;;;;;;;;19.70;43.45;100908.59;5073499;28;19936;-79
2022/01/08 01:47:09;;;;;;;;;;;;;;;19.63;43.22;100910.84;5058165;28;19943;-81
2022/01/08 01:49:36;;;;;;;;;;;;;;;19.61;43.16;100907.63;5039428;28;19971;-80
2022/01/08 01:52:02;;;;;;;;;;;;;;;19.61;43.28;100907.63;5072810;28;19978;-81
2022/01/08 01:54:28;;;;;;;;;;;;;;;19.60;43.05;100916.94;5072707;28;20521;-79
2022/01/08 01:56:54;;;;;;;;;;;;;;;19.59;43.16;100901.63;5068217;28;19920;-79
2022/01/08 01:59:20;;;;;;;;;;;;;;;19.58;42.98;100917.25;5056840;28;19916;-79
2022/01/08 02:01:45;;;;;;;;;;;;;;;19.57;43.04;100918.34;5063591;28;19921;-80
2022/01/08 02:04:11;;;;;;;;;;;;;;;19.57;42.85;100923.84;5054246;28;19924;-81
2022/01/08 02:06:36;;;;;;;;;;;;;;;19.56;43.07;100921.41;5055493;28;19970;-79
2022/01/08 02:09:01;;;;;;;;;;;;;;;19.55;43.04;100925.25;5054932;28;19921;-80
2022/01/08 02:11:27;;;;;;;;;;;;;;;19.55;43.07;100926.06;5055240;28;19917;-80
2022/01/08 02:14:00;;;;;;;;;;;;;;;19.53;43.01;100933.78;5054940;28;19928;-79
2022/01/08 02:16:27;;;;;;;;;;;;;;;19.54;42.83;100931.84;5070996;28;19916;-80
2022/01/08 02:18:52;;;;;;;;;;;;;;;19.52;43.07;100939.56;5072034;28;19966;-80
2022/01/08 02:21:17;;;;;;;;;;;;;;;19.52;42.93;100937.63;5072035;28;19924;-79
2022/01/08 02:23:43;;;;;;;;;;;;;;;19.51;42.83;100938.75;5072282;28;19921;-79
2022/01/08 02:26:09;;;;;;;;;;;;;;;19.50;42.93;100941.78;5073282;28;20014;-80
2022/01/08 02:28:35;;;;;;;;;;;;;;;19.49;42.82;100938.22;5072273;28;19920;-80
2022/01/08 02:31:01;;;;;;;;;;;;;;;19.49;42.75;100940.16;5053558;28;20338;-79
2022/01/08 02:33:27;;;;;;;;;;;;;;;19.48;42.90;100939.34;5071606;28;20372;-79
2022/01/08 02:35:52;;;;;;;;;;;;;;;19.48;42.91;100938.50;5038852;28;19921;-79
2022/01/08 02:38:17;;;;;;;;;;;;;;;19.46;42.95;100936.91;5070789;28;19924;-79
2022/01/08 02:40:52;;;;;;;;;;;;;;;19.46;42.99;100939.63;5072617;28;19954;-79
2022/01/08 02:43:17;;;;;;;;;;;;;;;19.45;42.89;100945.41;5072546;28;19943;-80
2022/01/08 02:45:43;;;;;;;;;;;;;;;19.44;42.65;100939.09;5037746;28;20368;-79
2022/01/08 02:48:08;;;;;;;;;;;;;;;19.43;42.59;100940.22;5034481;28;20372;-79
2022/01/08 02:50:33;;;;;;;;;;;;;;;19.44;42.80;100941.03;5058622;28;19928;-79
2022/01/08 02:52:59;;;;;;;;;;;;;;;19.42;42.71;100943.25;5037186;28;20324;-79
2022/01/08 02:55:24;;;;;;;;;;;;;;;19.42;42.96;100948.75;5054564;28;20279;-79
2022/01/08 02:57:49;;;;;;;;;;;;;;;19.40;42.81;100946.31;5054286;28;19935;-79
2022/01/08 03:00:16;;;;;;;;;;;;;;;19.41;42.71;100944.38;5041462;28;19927;-79
2022/01/08 03:02:42;;;;;;;;;;;;;;;19.39;42.66;100936.44;5070822;28;19920;-79
2022/01/08 03:05:08;;;;;;;;;;;;;;;19.39;42.60;100941.13;5070886;28;20307;-80
2022/01/08 03:07:33;;;;;;;;;;;;;;;19.38;42.64;100937.56;5065899;28;20403;-79
2022/01/08 03:09:58;;;;;;;;;;;;;;;19.36;42.45;100931.56;5058609;28;19921;-79
2022/01/08 03:12:25;;;;;;;;;;;;;;;19.36;42.57;100928.84;5033844;28;19966;-80
2022/01/08 03:14:50;;;;;;;;;;;;;;;19.35;42.72;100937.34;5074684;28;20246;-79
2022/01/08 03:17:16;;;;;;;;;;;;;;;19.34;42.60;100939.25;5072230;28;19931;-79
2022/01/08 03:19:41;;;;;;;;;;;;;;;19.33;42.67;100940.38;5036715;28;19982;-79
2022/01/08 03:22:06;;;;;;;;;;;;;;;19.33;42.39;100936.84;5071279;28;19921;-81
2022/01/08 03:24:32;;;;;;;;;;;;;;;19.32;42.60;100933.25;5037422;28;19928;-80
2022/01/08 03:26:57;;;;;;;;;;;;;;;19.32;42.51;100932.47;5051996;28;19920;-80
2022/01/08 03:29:23;;;;;;;;;;;;;;;19.30;42.59;100935.47;5050923;28;19932;-80
2022/01/08 03:31:48;;;;;;;;;;;;;;;19.29;42.46;100928.38;5053980;28;19921;-80
2022/01/08 03:34:14;;;;;;;;;;;;;;;19.29;42.60;100928.38;5071266;28;20367;-80
2022/01/08 03:36:39;;;;;;;;;;;;;;;19.28;42.66;100928.66;5049951;28;19924;-80
2022/01/08 03:39:04;;;;;;;;;;;;;;;19.27;42.55;100933.34;5052796;28;19967;-79
2022/01/08 03:41:30;;;;;;;;;;;;;;;19.27;42.56;100932.53;5049697;28;19924;-79
2022/01/08 03:43:55;;;;;;;;;;;;;;;19.26;42.41;100936.41;5037632;28;20264;-79
2022/01/08 03:46:22;;;;;;;;;;;;;;;19.24;42.30;100932.00;5070709;28;19999;-81
2022/01/08 03:49:11;;;;;;;;;;;;;;;19.24;42.42;100942.97;5037367;28;19920;-79
2022/01/08 03:51:33;;;;;;;;;;;;;;;19.22;42.63;100945.19;5056093;28;19924;-79
2022/01/08 03:53:58;;;;;;;;;;;;;;;19.22;42.52;100950.66;5071510;28;20269;-79
2022/01/08 03:56:24;;;;;;;;;;;;;;;19.22;42.31;100941.63;5037309;28;19920;-80
2022/01/08 03:58:50;;;;;;;;;;;;;;;19.20;42.58;100941.94;5071292;28;20375;-80
2022/01/08 04:01:15;;;;;;;;;;;;;;;19.19;42.42;100950.44;5071290;28;20322;-80
2022/01/08 04:03:41;;;;;;;;;;;;;;;19.18;42.39;100954.31;5071299;28;19959;-80
2022/01/08 04:06:06;;;;;;;;;;;;;;;19.18;42.42;100951.56;5052819;28;19924;-80
2022/01/08 04:08:31;;;;;;;;;;;;;;;19.17;42.68;100955.41;5066378;28;20353;-80
2022/01/08 04:10:56;;;;;;;;;;;;;;;19.15;42.46;100958.44;5046817;28;19931;-80
2022/01/08 04:13:26;;;;;;;;;;;;;;;19.15;42.60;100960.34;5053776;28;20284;-81
2022/01/08 04:15:55;;;;;;;;;;;;;;;19.15;42.28;100954.88;5037637;28;20440;-80
2022/01/08 04:18:21;;;;;;;;;;;;;;;19.13;42.46;100963.41;5071654;28;19917;-80
2022/01/08 04:21:17;;;;;;;;;;;;;;;19.13;42.43;100965.34;5069479;28;19954;-80
2022/01/08 04:23:41;;;;;;;;;;;;;;;19.11;42.53;100962.06;5065391;28;19920;-80
2022/01/08 04:26:06;;;;;;;;;;;;;;;19.11;42.50;100962.06;5070774;28;19958;-80
2022/01/08 04:28:31;;;;;;;;;;;;;;;19.10;42.30;100965.91;5069837;28;19920;-79
2022/01/08 04:30:56;;;;;;;;;;;;;;;19.08;42.50;100968.94;5059324;28;19920;-80
2022/01/08 04:33:22;;;;;;;;;;;;;;;19.08;42.57;100970.88;5052262;28;19920;-80
2022/01/08 04:35:47;;;;;;;;;;;;;;;19.07;42.37;100967.31;5026118;28;20283;-80
2022/01/08 04:38:13;;;;;;;;;;;;;;;19.07;42.53;100963.75;5040729;28;19925;-79
2022/01/08 04:40:38;;;;;;;;;;;;;;;19.06;42.53;100975.81;5074510;28;19924;-79
2022/01/08 04:43:04;;;;;;;;;;;;;;;19.05;42.52;100977.75;5057148;28;19971;-80
2022/01/08 04:45:30;;;;;;;;;;;;;;;19.04;42.47;100978.84;5073380;28;19916;-80
2022/01/08 04:47:55;;;;;;;;;;;;;;;19.04;42.35;100981.59;5074765;28;19962;-80
2022/01/08 04:50:21;;;;;;;;;;;;;;;19.03;42.35;100979.97;5067938;28;19979;-80
2022/01/08 04:52:46;;;;;;;;;;;;;;;19.02;42.34;100987.38;5074463;28;19928;-80
2022/01/08 04:55:11;;;;;;;;;;;;;;;19.02;42.14;100994.75;5057298;28;20262;-80
2022/01/08 04:57:36;;;;;;;;;;;;;;;19.00;42.51;100984.09;5074062;28;19940;-80
2022/01/08 05:00:03;;;;;;;;;;;;;;;19.01;42.29;100993.13;5074108;28;20425;-80
2022/01/08 05:02:28;;;;;;;;;;;;;;;18.99;42.28;100995.34;5056509;28;19917;-82
2022/01/08 05:04:53;;;;;;;;;;;;;;;18.99;42.39;101004.34;5056666;28;20019;-80
2022/01/08 05:07:18;;;;;;;;;;;;;;;18.98;42.39;101010.16;5039772;28;20565;-80
2022/01/08 05:09:44;;;;;;;;;;;;;;;18.98;42.44;101012.88;5073038;28;19995;-80
2022/01/08 05:12:09;;;;;;;;;;;;;;;18.96;42.17;101002.22;5056812;28;20011;-80
2022/01/08 05:14:34;;;;;;;;;;;;;;;18.96;42.33;101007.69;5056541;28;20002;-81
2022/01/08 05:17:01;;;;;;;;;;;;;;;18.95;42.33;100999.75;5041845;28;19916;-80
2022/01/08 05:19:40;;;;;;;;;;;;;;;18.95;42.30;100991.53;5052713;28;19970;-80
2022/01/08 05:22:06;;;;;;;;;;;;;;;18.93;42.38;100991.84;5059618;28;19925;-80
2022/01/08 05:24:32;;;;;;;;;;;;;;;18.92;42.35;100990.22;5071059;28;19916;-82
2022/01/08 05:26:57;;;;;;;;;;;;;;;18.93;42.29;100991.03;5073255;28;20280;-80
2022/01/08 05:29:22;;;;;;;;;;;;;;;18.92;42.25;100986.66;5039308;28;20066;-80
2022/01/08 05:31:48;;;;;;;;;;;;;;;18.91;42.35;100988.59;5055987;28;19920;-80
2022/01/08 05:34:13;;;;;;;;;;;;;;;18.90;42.44;100976.03;5056072;28;19924;-80
2022/01/08 05:36:39;;;;;;;;;;;;;;;18.91;42.17;100982.31;5054773;28;19917;-80
2022/01/08 05:39:04;;;;;;;;;;;;;;;18.90;42.09;100983.41;5066762;28;19920;-80
2022/01/08 05:41:30;;;;;;;;;;;;;;;18.88;42.28;100994.66;5039534;28;19950;-80
2022/01/08 05:43:55;;;;;;;;;;;;;;;18.88;42.11;101005.59;5042329;28;20065;-81
2022/01/08 05:46:20;;;;;;;;;;;;;;;18.88;42.30;101004.78;5055893;28;19928;-80
2022/01/08 05:48:45;;;;;;;;;;;;;;;18.86;42.08;100996.88;5071475;28;19920;-79
2022/01/08 05:51:11;;;;;;;;;;;;;;;18.85;42.10;101000.72;5039492;28;19920;-79
2022/01/08 05:53:36;;;;;;;;;;;;;;;18.84;42.19;101012.75;5054894;28;19921;-80
2022/01/08 05:56:01;;;;;;;;;;;;;;;18.84;42.29;101011.94;5055228;28;19931;-80
2022/01/08 05:58:26;;;;;;;;;;;;;;;18.84;42.24;101017.41;5073751;28;19916;-80
2022/01/08 06:00:52;;;;;;;;;;;;;;;18.81;42.34;101016.91;5073685;28;19921;-80
2022/01/08 06:03:19;;;;;;;;;;;;;;;18.81;42.14;101013.34;5038683;28;19924;-80
2022/01/08 06:05:44;;;;;;;;;;;;;;;18.81;42.38;101025.09;5055091;28;20020;-80
2022/01/08 06:08:10;;;;;;;;;;;;;;;18.80;42.11;101020.75;5072490;28;19995;-80
2022/01/08 06:10:35;;;;;;;;;;;;;;;18.80;42.22;101019.94;5073234;28;19968;-83
2022/01/08 06:13:00;;;;;;;;;;;;;;;18.79;42.30;101026.50;5073100;28;19916;-81
2022/01/08 06:15:26;;;;;;;;;;;;;;;18.79;42.15;101029.25;5055114;28;19970;-79
2022/01/08 06:17:51;;;;;;;;;;;;;;;18.78;42.16;101028.44;5072914;28;19927;-80
2022/01/08 06:20:16;;;;;;;;;;;;;;;18.77;42.20;101020.50;5071986;28;19920;-80
2022/01/08 06:22:41;;;;;;;;;;;;;;;18.77;42.10;101017.75;5054573;28;19921;-80
2022/01/08 06:25:07;;;;;;;;;;;;;;;18.76;42.04;101014.22;5055959;28;20357;-80
2022/01/08 06:27:32;;;;;;;;;;;;;;;18.75;42.31;101014.50;5053423;28;19920;-80
2022/01/08 06:29:57;;;;;;;;;;;;;;;18.74;42.09;101008.19;5050369;28;19920;-81
2022/01/08 06:32:22;;;;;;;;;;;;;;;18.73;42.21;101009.31;5072570;28;20000;-81
2022/01/08 06:34:48;;;;;;;;;;;;;;;18.73;42.22;101008.50;5054469;28;19956;-80
2022/01/08 06:37:13;;;;;;;;;;;;;;;18.73;42.12;101003.03;5073172;28;19936;-80
2022/01/08 06:39:38;;;;;;;;;;;;;;;18.73;42.28;100995.63;5072819;28;20356;-82
2022/01/08 06:42:03;;;;;;;;;;;;;;;18.71;42.34;100989.63;5063059;28;19931;-79
2022/01/08 06:44:29;;;;;;;;;;;;;;;18.71;42.12;100989.63;5034314;28;19920;-79
2022/01/08 06:46:54;;;;;;;;;;;;;;;18.71;42.18;100989.63;5072098;28;20415;-81
2022/01/08 06:49:20;;;;;;;;;;;;;;;18.70;42.21;100989.94;5072078;28;19927;-81
2022/01/08 06:51:45;;;;;;;;;;;;;;;18.69;42.05;100989.09;5072040;28;20003;-81
2022/01/08 06:54:10;;;;;;;;;;;;;;;18.69;42.22;100989.09;5070609;28;20015;-80
2022/01/08 06:56:36;;;;;;;;;;;;;;;18.69;42.32;100991.81;5072695;28;19924;-81
2022/01/08 06:59:01;;;;;;;;;;;;;;;18.67;42.06;100988.59;5071945;28;19920;-79
2022/01/08 07:01:26;;;;;;;;;;;;;;;18.66;42.28;100992.41;5038086;28;19940;-80
2022/01/08 07:03:54;;;;;;;;;;;;;;;18.66;42.06;100989.66;5070516;28;19924;-81
2022/01/08 07:06:20;;;;;;;;;;;;;;;18.65;42.16;100987.22;5071902;28;20006;-80
2022/01/08 07:08:45;;;;;;;;;;;;;;;18.64;42.35;100986.41;5071852;28;20015;-80
2022/01/08 07:11:10;;;;;;;;;;;;;;;18.64;42.20;100988.34;5037928;28;19925;-80
2022/01/08 07:13:35;;;;;;;;;;;;;;;18.64;42.16;100993.81;5054523;28;19924;-80
2022/01/08 07:16:01;;;;;;;;;;;;;;;18.63;42.23;100990.25;5037130;28;20377;-80
2022/01/08 07:18:26;;;;;;;;;;;;;;;18.62;42.28;100991.34;5054324;28;19931;-79
2022/01/08 07:20:51;;;;;;;;;;;;;;;18.61;42.37;100987.00;5070725;28;19966;-81
2022/01/08 07:23:16;;;;;;;;;;;;;;;18.62;42.16;100987.81;5054541;28;19991;-80
2022/01/08 07:25:42;;;;;;;;;;;;;;;18.60;42.34;100991.66;5054472;28;19924;-80
2022/01/08 07:28:07;;;;;;;;;;;;;;;18.60;42.27;100988.91;5053335;28;19924;-80
2022/01/08 07:30:32;;;;;;;;;;;;;;;18.59;42.12;100981.00;5071663;28;20386;-81
2022/01/08 07:32:57;;;;;;;;;;;;;;;18.58;41.88;100985.66;5071302;28;19931;-79
2022/01/08 07:35:23;;;;;;;;;;;;;;;18.59;42.14;100983.72;5072472;28;19921;-78
2022/01/08 07:37:52;;;;;;;;;;;;;;;18.58;42.17;100982.13;5053496;28;19920;-81
2022/01/08 07:40:17;;;;;;;;;;;;;;;18.56;42.12;100985.13;5061360;28;19925;-78
2022/01/08 07:42:43;;;;;;;;;;;;;;;18.57;42.12;100996.88;5071675;28;19937;-77
2022/01/08 07:45:09;;;;;;;;;;;;;;;18.58;42.28;100984.84;5066791;28;19929;-79
2022/01/08 07:47:34;;;;;;;;;;;;;;;18.57;42.12;100981.31;5070599;28;19927;-79
2022/01/08 07:49:59;;;;;;;;;;;;;;;18.57;42.17;100981.31;5069591;28;19951;-79
2022/01/08 07:52:25;;;;;;;;;;;;;;;18.55;42.24;100978.03;5071521;28;19925;-79
2022/01/08 07:54:50;;;;;;;;;;;;;;;18.55;42.07;100975.31;5052550;28;19944;-80
2022/01/08 07:57:15;;;;;;;;;;;;;;;18.55;42.25;100977.22;5026886;28;19921;-80
2022/01/08 07:59:42;;;;;;;;;;;;;;;18.54;42.28;100972.84;5051232;28;20360;-79
2022/01/08 08:02:07;;;;;;;;;;;;;;;18.56;42.09;100976.09;5069676;28;19955;-80
2022/01/08 08:04:33;;;;;;;;;;;;;;;18.54;42.04;100970.09;5071439;28;20353;-79
2022/01/08 08:06:58;;;;;;;;;;;;;;;18.53;42.24;100974.78;5040627;28;19920;-80
2022/01/08 08:09:23;;;;;;;;;;;;;;;18.52;42.15;100967.69;5056993;28;20515;-79
2022/01/08 08:11:48;;;;;;;;;;;;;;;18.53;42.19;100963.03;5040637;28;19936;-80
2022/01/08 08:14:14;;;;;;;;;;;;;;;18.52;42.33;100950.44;5075114;28;19928;-80
2022/01/08 08:16:40;;;;;;;;;;;;;;;18.53;42.28;100949.34;5057477;28;19943;-80
2022/01/08 08:19:05;;;;;;;;;;;;;;;18.52;42.09;100951.28;5056835;28;19927;-80
2022/01/08 08:21:31;;;;;;;;;;;;;;;18.52;42.14;100948.53;5074495;28;20288;-79
2022/01/08 08:23:56;;;;;;;;;;;;;;;18.52;42.36;100944.97;5056342;28;20368;-79
2022/01/08 08:26:21;;;;;;;;;;;;;;;18.53;42.06;100946.59;5041589;28;19921;-80
2022/01/08 08:28:46;;;;;;;;;;;;;;;18.52;42.14;100947.69;5074699;28;19948;-79
2022/01/08 08:31:12;;;;;;;;;;;;;;;18.51;42.02;100941.41;5073126;28;20426;-79
2022/01/08 08:33:37;;;;;;;;;;;;;;;18.52;42.50;100947.69;5057601;28;19916;-80
2022/01/08 08:36:03;;;;;;;;;;;;;;;18.51;42.15;100938.69;5056839;28;19927;-79
2022/01/08 08:38:28;;;;;;;;;;;;;;;18.52;42.10;100943.06;5075150;28;20403;-79
2022/01/08 08:40:54;;;;;;;;;;;;;;;18.51;42.23;100935.94;5057057;28;19924;-81
2022/01/08 08:43:20;;;;;;;;;;;;;;;18.51;42.04;100935.94;5075316;28;20373;-79
2022/01/08 08:45:46;;;;;;;;;;;;;;;18.51;42.22;100933.22;5056895;28;19927;-80
2022/01/08 08:48:11;;;;;;;;;;;;;;;18.51;42.18;100937.88;5057397;28;20254;-80
2022/01/08 08:50:37;;;;;;;;;;;;;;;18.51;42.21;100935.94;5075293;28;19921;-79
2022/01/08 08:53:02;;;;;;;;;;;;;;;18.51;42.10;100941.41;5055729;28;20273;-77
2022/01/08 08:55:27;;;;;;;;;;;;;;;18.51;42.23;100929.66;5075265;28;20273;-77
2022/01/08 08:57:53;;;;;;;;;;;;;;;18.51;42.28;100938.69;5074444;28;20356;-82
2022/01/08 09:00:19;;;;;;;;;;;;;;;18.50;42.29;100937.06;5039266;28;20519;-78
2022/01/08 09:02:44;;;;;;;;;;;;;;;18.51;42.40;100940.59;5040194;28;20015;-81
2022/01/08 09:05:09;;;;;;;;;;;;;;;18.51;42.42;100941.41;5055980;28;19959;-80
2022/01/08 09:07:35;;;;;;;;;;;;;;;18.51;42.67;100937.88;5061258;28;19928;-80
2022/01/08 09:10:02;;;;;;;;;;;;;;;18.51;42.68;100935.13;5071680;28;19966;-79
2022/01/08 09:12:28;;;;;;;;;;;;;;;18.50;42.90;100928.84;5075312;28;20414;-79
2022/01/08 09:14:53;;;;;;;;;;;;;;;18.52;42.76;100928.53;5072305;28;19924;-78
2022/01/08 09:17:20;;;;;;;;;;;;;;;18.50;42.90;100917.91;5038867;28;19956;-79
2022/01/08 09:19:45;;;;;;;;;;;;;;;18.51;43.01;100922.25;5056290;28;19924;-79
2022/01/08 09:22:12;;;;;;;;;;;;;;;18.51;43.15;100916.00;5074967;28;19923;-78
2022/01/08 09:24:37;;;;;;;;;;;;;;;18.52;43.22;100909.41;5072931;28;19921;-77
2022/01/08 09:27:03;;;;;;;;;;;;;;;18.51;43.28;100902.31;5074280;28;19923;-78
2022/01/08 09:29:28;;;;;;;;;;;;;;;18.51;43.28;100894.91;5073107;28;20397;-80
2022/01/08 09:31:54;;;;;;;;;;;;;;;18.52;43.21;100893.81;5064661;28;19927;-79
2022/01/08 09:34:19;;;;;;;;;;;;;;;18.52;43.29;100890.25;5062675;28;19917;-77
2022/01/08 09:36:45;;;;;;;;;;;;;;;18.52;43.30;100888.34;5056033;28;20284;-77
2022/01/08 09:39:10;;;;;;;;;;;;;;;18.52;43.38;100874.69;5073325;28;19923;-78
2022/01/08 09:41:36;;;;;;;;;;;;;;;18.53;43.33;100884.50;5070319;28;20160;-81
2022/01/08 09:44:01;;;;;;;;;;;;;;;18.52;43.36;100871.94;5074078;28;20387;-78
2022/01/08 09:46:26;;;;;;;;;;;;;;;18.54;43.22;100874.38;5079281;28;19924;-81
2022/01/08 09:48:52;;;;;;;;;;;;;;;18.54;43.43;100853.28;5058047;28;19917;-78
2022/01/08 09:51:17;;;;;;;;;;;;;;;18.55;43.46;100844.00;5069359;28;20019;-77
2022/01/08 09:53:43;;;;;;;;;;;;;;;18.56;43.49;100825.66;5070776;28;19921;-79
2022/01/08 09:56:09;;;;;;;;;;;;;;;18.57;43.72;100825.38;5075281;28;19927;-78
2022/01/08 09:58:34;;;;;;;;;;;;;;;18.60;43.85;100829.44;5070275;28;19959;-78
2022/01/08 10:01:00;;;;;;;;;;;;;;;18.62;43.90;100815.44;5063405;28;20367;-79
2022/01/08 10:03:27;;;;;;;;;;;;;;;18.64;44.09;100818.72;5080655;28;20237;-79
2022/01/08 10:05:58;;;;;;;;;;;;;;;18.66;43.90;100817.31;5071274;28;19920;-78
2022/01/08 10:08:25;;;;;;;;;;;;;;;18.69;43.87;100808.50;5073386;28;19920;-78
2022/01/08 10:10:55;;;;;;;;;;;;;;;18.71;44.01;100797.28;5069686;28;19943;-79
2022/01/08 10:13:21;;;;;;;;;;;;;;;18.72;43.97;100791.50;5050459;28;19917;-79
2022/01/08 10:18:36;;;;;;;;;;;;;;;18.78;44.14;100779.41;5061721;28;20069;-79
2022/01/08 10:21:14;;;;;;;;;;;;;;;18.80;44.15;100779.91;5068004;28;20011;-79
2022/01/08 10:23:41;;;;;;;;;;;;;;;18.83;43.97;100766.75;5085855;28;19952;-79
2022/01/08 10:26:08;;;;;;;;;;;;;;;18.85;44.20;100759.88;5071571;28;19920;-79
2022/01/08 10:28:37;;;;;;;;;;;;;;;18.88;44.33;100756.53;5070407;28;20058;-79
2022/01/08 10:31:22;;;;;;;;;;;;;;;18.90;44.12;100751.59;5069286;28;19916;-80
2022/01/08 10:33:49;;;;;;;;;;;;;;;18.93;44.31;100750.97;5066482;28;20331;-79
2022/01/08 10:36:19;;;;;;;;;;;;;;;18.96;44.27;100744.09;5069806;28;20417;-79
2022/01/08 10:38:48;;;;;;;;;;;;;;;18.97;44.44;100732.81;5062744;28;19963;-79
2022/01/08 10:41:14;;;;;;;;;;;;;;;18.99;44.35;100730.63;5052531;28;19939;-80
2022/01/08 10:43:40;;;;;;;;;;;;;;;19.02;44.08;100724.56;5069454;28;19966;-80
2022/01/08 10:46:17;;;;;;;;;;;;;;;19.05;44.29;100711.34;5070258;28;19917;-80
2022/01/08 10:48:43;;;;;;;;;;;;;;;19.06;44.23;100702.84;5069353;28;19920;-80
2022/01/08 10:51:12;;;;;;;;;;;;;;;19.09;44.05;100705.00;5070367;28;19920;-80
2022/01/08 10:54:09;;;;;;;;;;;;;;;19.12;44.25;100698.09;5070527;28;19921;-79
2022/01/08 10:56:43;;;;;;;;;;;;;;;19.14;44.28;100695.88;5047744;28;19924;-79
2022/01/08 10:59:21;;;;;;;;;;;;;;;19.15;43.98;100692.84;5055044;28;20365;-79
2022/01/08 11:01:48;;;;;;;;;;;;;;;19.18;44.20;100692.25;5069461;28;19916;-78
2022/01/08 11:04:15;;;;;;;;;;;;;;;19.19;44.21;100674.69;5047017;28;19974;-79
2022/01/08 11:06:50;;;;;;;;;;;;;;;19.21;44.09;100661.50;5069637;28;19997;-79
2022/01/08 11:09:15;;;;;;;;;;;;;;;19.24;44.04;100651.88;5067322;28;19943;-79
2022/01/08 11:11:42;;;;;;;;;;;;;;;19.25;44.17;100648.00;5066830;28;20389;-79
2022/01/08 11:14:08;;;;;;;;;;;;;;;19.26;44.06;100646.91;5067141;28;19990;-80
2022/01/08 11:16:37;;;;;;;;;;;;;;;19.28;43.99;100622.78;5068214;28;20006;-79
2022/01/08 11:19:03;;;;;;;;;;;;;;;19.29;44.06;100616.19;5066327;28;20289;-79
2022/01/08 11:21:30;;;;;;;;;;;;;;;19.31;43.91;100605.72;5066098;28;19924;-79
2022/01/08 11:23:57;;;;;;;;;;;;;;;19.33;43.99;100605.44;5056827;28;19932;-80
2022/01/08 11:26:22;;;;;;;;;;;;;;;19.33;43.93;100595.28;5069676;28;19921;-79
2022/01/08 11:28:48;;;;;;;;;;;;;;;19.36;43.89;100585.66;5075074;28;20393;-79
2022/01/08 11:31:15;;;;;;;;;;;;;;;19.35;43.82;100581.28;5069933;28;19927;-79
2022/01/08 11:33:44;;;;;;;;;;;;;;;19.38;43.87;100573.28;5071414;28;20349;-79
2022/01/08 11:36:10;;;;;;;;;;;;;;;19.38;43.85;100559.59;5077867;28;19916;-80
2022/01/08 11:38:35;;;;;;;;;;;;;;;19.40;43.93;100560.09;5070122;28;19956;-80
2022/01/08 11:41:01;;;;;;;;;;;;;;;19.41;43.86;100566.38;5061929;28;20017;-80
2022/01/08 11:43:28;;;;;;;;;;;;;;;19.42;43.67;100554.28;5057774;28;20501;-80
2022/01/08 11:45:55;;;;;;;;;;;;;;;19.42;43.72;100560.56;5069974;28;19924;-79
2022/01/08 11:48:24;;;;;;;;;;;;;;;19.42;43.57;100552.34;5082861;28;19931;-80
2022/01/08 11:50:57;;;;;;;;;;;;;;;19.43;43.58;100545.78;5029332;28;20196;-80
2022/01/08 11:53:24;;;;;;;;;;;;;;;19.44;43.51;100541.91;5053635;28;19937;-81
2022/01/08 11:55:50;;;;;;;;;;;;;;;19.45;43.49;100521.63;5030065;28;19952;-79
2022/01/08 11:58:27;;;;;;;;;;;;;;;19.45;43.46;100521.63;5035227;28;20345;-80
2022/01/08 12:00:58;;;;;;;;;;;;;;;19.46;43.45;100506.81;5018644;28;20002;-78
2022/01/08 12:03:32;;;;;;;;;;;;;;;19.47;43.37;100493.91;5045294;28;19916;-79
2022/01/08 12:06:16;;;;;;;;;;;;;;;19.49;43.33;100482.66;5017907;28;19928;-78
2022/01/08 12:09:07;;;;;;;;;;;;;;;19.49;43.30;100477.97;5019168;28;20032;-78
2022/01/08 12:11:32;;;;;;;;;;;;;;;19.50;43.22;100459.63;5032065;28;19917;-78
2022/01/08 12:14:07;;;;;;;;;;;;;;;19.50;43.22;100449.47;5045092;28;19972;-78
2022/01/08 12:16:40;;;;;;;;;;;;;;;19.51;42.82;100442.06;5025685;28;19925;-78
2022/01/08 12:19:06;;;;;;;;;;;;;;;19.50;42.72;100429.47;5030274;28;20441;-77
2022/01/08 12:21:41;;;;;;;;;;;;;;;19.51;42.88;100420.16;5029358;28;20020;-80
2022/01/08 12:24:25;;;;;;;;;;;;;;;19.51;42.55;100406.47;5046212;28;20043;-78
2022/01/08 12:26:51;;;;;;;;;;;;;;;19.52;42.61;100391.63;5026291;28;20440;-77
2022/01/08 12:29:31;;;;;;;;;;;;;;;19.52;42.56;100386.16;5029213;28;19921;-78
2022/01/08 12:32:15;;;;;;;;;;;;;;;19.52;42.57;100370.53;5027322;28;20393;-78
2022/01/08 12:34:48;;;;;;;;;;;;;;;19.52;42.36;100370.53;5024934;28;19929;-78
2022/01/08 12:37:13;;;;;;;;;;;;;;;19.52;42.50;100345.88;5034362;28;20377;-79
2022/01/08 12:39:42;;;;;;;;;;;;;;;19.52;42.35;100354.09;5056888;28;19977;-81
2022/01/08 12:42:20;;;;;;;;;;;;;;;19.52;42.20;100332.16;5029231;28;19929;-85
2022/01/08 12:45:03;;;;;;;;;;;;;;;19.52;42.10;100318.47;5025036;28;19979;-83
2022/01/08 12:47:37;;;;;;;;;;;;;;;19.51;41.98;100305.09;5026723;28;19927;-83
2022/01/08 12:50:16;;;;;;;;;;;;;;;19.51;41.88;100297.69;5057189;28;19921;-83
2022/01/08 12:53:00;;;;;;;;;;;;;;;19.50;42.10;100285.09;5051202;28;20028;-83